Terminal Aerodrome Forecast
Issued by NWS

Home | Current Version | Previous Version | Text Only | Print | Product List | Glossary On
Versions: 1 2 3 4 5 6 7 8 9 10 11 12 13 14 15 16 17 18 19 20 21 22 23 24 25 26
000
FTUS45 KGJT 221935 AAA
TAFEGE
TAF AMD
KEGE 221935Z 2220/2318 29012KT 2SM HZ VCSH BKN028 OVC045
     FM222100 23010KT P6SM VCSH SCT025 BKN040
      TEMPO 2221/2223 2SM -SN BR BKN010
     FM230000 23008KT 3SM -SN BR SCT030 BKN050
     FM230300 10004KT P6SM SCT040 BKN060
     FM231100 13004KT P6SM VCSH SCT050 BKN060=

USA.gov is the U.S. government's official web portal to all federal, state and local government web resources and services.